Time;durP1;ratioP1;P1;durP2;ratioP2;P2;SDS_P1;SDS_P2;PMS_P1;PMS_P2;Temp;Humidity;BMP_temperature;BMP_pressure;BME280_temperature;BME280_humidity;BME280_pressure;Samples;Min_cycle;Max_cycle;Signal;HPM_P1;HPM_P2
2023/12/31 00:00:09;;;;;;;8.52;4.38;;;-1.20;99.90;;;;;;5097994;28;20030;-79
2023/12/31 00:02:35;;;;;;;9.38;4.80;;;-1.30;99.90;;;;;;5098519;28;20108;-79
2023/12/31 00:05:01;;;;;;;7.38;4.10;;;-1.30;99.90;;;;;;5063476;28;20024;-79
2023/12/31 00:07:27;;;;;;;6.65;3.75;;;-1.30;99.90;;;;;;5080261;28;20094;-79
2023/12/31 00:09:53;;;;;;;7.72;4.07;;;-1.40;99.90;;;;;;5080349;28;20036;-79
2023/12/31 00:12:18;;;;;;;11.82;4.80;;;-1.30;99.90;;;;;;5099732;28;20085;-80
2023/12/31 00:14:44;;;;;;;8.32;4.47;;;-1.40;99.90;;;;;;5082959;28;20047;-79
2023/12/31 00:17:10;;;;;;;8.65;4.90;;;-1.30;99.90;;;;;;5083073;28;20028;-79
2023/12/31 00:19:35;;;;;;;9.05;5.15;;;-1.30;99.90;;;;;;5112088;28;20024;-79
2023/12/31 00:22:01;;;;;;;7.13;4.30;;;-1.30;99.90;;;;;;5098218;28;20063;-79
2023/12/31 00:24:27;;;;;;;8.57;4.50;;;-1.30;99.90;;;;;;5097287;28;20028;-79
2023/12/31 00:26:52;;;;;;;6.80;4.40;;;-1.30;99.90;;;;;;5079883;28;20103;-79
2023/12/31 00:29:18;;;;;;;7.38;3.88;;;-1.30;99.90;;;;;;5080373;28;20065;-79
2023/12/31 00:31:44;;;;;;;7.00;2.72;;;-1.40;99.90;;;;;;5046798;28;20177;-79
2023/12/31 00:34:10;;;;;;;6.55;2.53;;;-1.40;99.90;;;;;;5078993;28;20035;-79
2023/12/31 00:36:36;;;;;;;6.72;2.55;;;-1.40;99.90;;;;;;5080126;28;20491;-79
2023/12/31 00:39:02;;;;;;;5.22;2.45;;;-1.50;99.90;;;;;;5079534;28;20032;-79
2023/12/31 00:41:27;;;;;;;5.07;2.42;;;-1.60;99.90;;;;;;5098011;28;20047;-79
2023/12/31 00:43:53;;;;;;;5.97;2.80;;;-1.60;99.90;;;;;;5097466;28;20020;-79
2023/12/31 00:46:19;;;;;;;5.30;2.65;;;-1.60;99.90;;;;;;5081949;28;20485;-79
2023/12/31 00:48:45;;;;;;;3.97;2.38;;;-1.60;99.90;;;;;;5081159;28;20039;-79
2023/12/31 00:51:10;;;;;;;4.22;2.47;;;-1.60;99.90;;;;;;5066511;28;20034;-79
2023/12/31 00:53:36;;;;;;;4.80;2.80;;;-1.60;99.90;;;;;;5102741;28;20075;-79
2023/12/31 00:56:02;;;;;;;5.70;3.00;;;-1.60;99.90;;;;;;5085335;28;20039;-80
2023/12/31 00:58:28;;;;;;;8.40;4.40;;;-1.60;99.90;;;;;;5084509;28;20496;-79
2023/12/31 01:00:53;;;;;;;7.72;4.10;;;-1.60;99.90;;;;;;5084670;28;20119;-80
2023/12/31 01:03:19;;;;;;;11.75;5.55;;;-1.60;99.90;;;;;;5103239;28;20039;-79
2023/12/31 01:05:45;;;;;;;8.73;5.03;;;-1.60;99.90;;;;;;5066378;28;20025;-79
2023/12/31 01:08:11;;;;;;;8.95;5.00;;;-1.60;99.90;;;;;;5101462;28;20036;-79
2023/12/31 01:10:36;;;;;;;8.65;4.10;;;-1.70;99.90;;;;;;5083222;28;20055;-80
2023/12/31 01:13:02;;;;;;;8.45;5.05;;;-1.70;99.90;;;;;;5066029;28;20040;-79
2023/12/31 01:15:28;;;;;;;9.77;4.85;;;-1.70;99.90;;;;;;5082674;28;20069;-79
2023/12/31 01:17:54;;;;;;;7.75;4.47;;;-1.70;99.90;;;;;;5096613;28;20040;-79
2023/12/31 01:20:20;;;;;;;8.40;4.40;;;-1.70;99.90;;;;;;5101796;28;20036;-79
2023/12/31 01:22:46;;;;;;;8.02;5.22;;;-1.70;99.90;;;;;;5101701;28;20032;-80
2023/12/31 01:25:12;;;;;;;9.52;5.35;;;-1.80;99.90;;;;;;5066593;28;20085;-79
2023/12/31 01:27:37;;;;;;;8.90;4.90;;;-1.80;99.90;;;;;;5082906;28;20032;-79
2023/12/31 01:30:03;;;;;;;8.55;4.80;;;-1.80;99.90;;;;;;5066158;28;20028;-79
2023/12/31 01:32:29;;;;;;;6.88;3.97;;;-1.90;99.90;;;;;;5082734;28;20031;-80
2023/12/31 01:34:58;;;;;;;7.53;4.15;;;-1.80;99.90;;;;;;5082769;28;20028;-79
2023/12/31 01:37:24;;;;;;;9.25;5.45;;;-1.90;99.90;;;;;;5082361;28;20042;-79
2023/12/31 01:39:50;;;;;;;12.52;6.00;;;-1.90;99.90;;;;;;5067521;28;20025;-79
2023/12/31 01:42:15;;;;;;;9.52;5.57;;;-1.90;99.90;;;;;;5097920;28;20035;-79
2023/12/31 01:44:41;;;;;;;13.88;5.13;;;-2.00;99.90;;;;;;5100867;28;20054;-79
2023/12/31 01:47:07;;;;;;;8.63;4.43;;;-2.00;99.90;;;;;;5082007;28;20024;-79
2023/12/31 01:49:33;;;;;;;10.30;4.70;;;-2.10;99.90;;;;;;5063927;28;20025;-80
2023/12/31 01:52:00;;;;;;;7.53;3.90;;;-2.10;99.90;;;;;;5050143;28;20081;-80
2023/12/31 01:54:27;;;;;;;8.00;4.28;;;-2.20;99.90;;;;;;5080642;28;20105;-79
2023/12/31 01:56:53;;;;;;;8.90;4.20;;;-2.30;99.90;;;;;;5080459;28;20025;-79
2023/12/31 01:59:21;;;;;;;6.53;3.50;;;-2.30;99.90;;;;;;5044889;28;20032;-79
2023/12/31 02:01:48;;;;;;;9.00;4.57;;;-2.30;99.90;;;;;;5061546;28;20050;-79
2023/12/31 02:04:15;;;;;;;7.38;3.80;;;-2.20;99.90;;;;;;5080205;28;20024;-79
2023/12/31 02:06:41;;;;;;;6.70;3.92;;;-2.20;99.90;;;;;;5081295;28;20101;-79
2023/12/31 02:09:08;;;;;;;6.05;3.85;;;-2.20;99.90;;;;;;5092372;28;20039;-80
2023/12/31 02:11:35;;;;;;;10.02;4.95;;;-2.10;99.90;;;;;;5045263;28;20032;-79
2023/12/31 02:14:01;;;;;;;14.10;6.32;;;-2.10;99.90;;;;;;5078146;28;20032;-79
2023/12/31 02:16:27;;;;;;;11.93;6.22;;;-2.10;99.90;;;;;;5082529;28;20085;-79
2023/12/31 02:18:53;;;;;;;9.85;4.85;;;-2.10;99.90;;;;;;5052786;28;20035;-79
2023/12/31 02:21:20;;;;;;;8.43;4.20;;;-2.10;99.90;;;;;;5079349;28;20104;-79
2023/12/31 02:23:46;;;;;;;9.90;4.50;;;-2.10;99.90;;;;;;5079870;28;20465;-79
2023/12/31 02:26:12;;;;;;;11.68;4.80;;;-2.10;99.90;;;;;;5094422;28;20039;-80
2023/12/31 02:28:39;;;;;;;7.88;4.70;;;-2.10;99.90;;;;;;5066785;28;20365;-80
2023/12/31 02:31:05;;;;;;;7.80;4.90;;;-2.10;99.90;;;;;;5085316;28;20720;-80
2023/12/31 02:33:32;;;;;;;6.57;4.30;;;-2.10;99.90;;;;;;5104227;28;20080;-80
2023/12/31 02:35:57;;;;;;;8.77;4.63;;;-2.10;99.90;;;;;;5085539;28;20024;-80
2023/12/31 02:38:23;;;;;;;7.93;4.32;;;-2.20;99.90;;;;;;5068569;28;20024;-80
2023/12/31 02:40:49;;;;;;;9.18;4.30;;;-2.10;99.90;;;;;;5101496;28;20102;-80
2023/12/31 02:43:15;;;;;;;7.78;3.88;;;-2.20;99.90;;;;;;5113866;28;20028;-80
2023/12/31 02:45:40;;;;;;;10.35;4.25;;;-2.10;99.90;;;;;;5085520;28;20024;-79
2023/12/31 02:48:06;;;;;;;9.10;4.88;;;-2.20;99.90;;;;;;5071901;28;20039;-80
2023/12/31 02:50:32;;;;;;;6.93;3.80;;;-2.20;99.90;;;;;;5088734;28;20039;-80
2023/12/31 02:52:58;;;;;;;9.27;4.22;;;-2.20;99.90;;;;;;5089300;28;20028;-80
2023/12/31 02:55:23;;;;;;;8.23;3.85;;;-2.20;99.90;;;;;;5106624;28;20040;-80
2023/12/31 02:57:49;;;;;;;7.10;4.00;;;-2.30;99.90;;;;;;5087861;28;20070;-80
2023/12/31 03:00:15;;;;;;;7.13;3.90;;;-2.30;99.90;;;;;;5088783;28;20027;-80
2023/12/31 03:02:41;;;;;;;9.15;4.53;;;-2.30;99.90;;;;;;5088970;28;20028;-80
2023/12/31 03:05:07;;;;;;;7.25;4.25;;;-2.40;99.90;;;;;;5106750;28;20028;-80
2023/12/31 03:07:34;;;;;;;9.45;4.47;;;-2.40;99.90;;;;;;5071363;28;20040;-80
2023/12/31 03:09:59;;;;;;;8.63;4.40;;;-2.50;99.90;;;;;;5107694;28;20039;-80
2023/12/31 03:12:25;;;;;;;6.90;4.43;;;-2.60;99.90;;;;;;5106565;28;20099;-80
2023/12/31 03:14:51;;;;;;;7.10;4.28;;;-2.60;99.90;;;;;;5070929;28;20037;-80
2023/12/31 03:17:16;;;;;;;8.68;4.63;;;-2.70;99.90;;;;;;5087843;28;20028;-80
2023/12/31 03:19:42;;;;;;;6.38;4.00;;;-2.60;99.90;;;;;;5081619;28;20166;-80
2023/12/31 03:22:08;;;;;;;11.57;5.70;;;-2.60;99.90;;;;;;5075053;28;20043;-80
2023/12/31 03:24:33;;;;;;;9.82;4.82;;;-2.60;99.90;;;;;;5126821;28;20079;-80
2023/12/31 03:26:59;;;;;;;6.53;4.43;;;-2.70;99.90;;;;;;5106456;28;20016;-80
2023/12/31 03:29:26;;;;;;;7.60;4.38;;;-2.60;99.90;;;;;;5090894;28;20039;-80
2023/12/31 03:31:52;;;;;;;10.32;4.80;;;-2.60;99.90;;;;;;5126141;28;20157;-80
2023/12/31 03:34:18;;;;;;;10.75;4.70;;;-2.60;99.90;;;;;;5107952;28;20031;-80
2023/12/31 03:36:43;;;;;;;10.93;4.95;;;-2.60;99.90;;;;;;5091129;28;20038;-79
2023/12/31 03:39:09;;;;;;;9.13;5.25;;;-2.50;99.90;;;;;;5096892;28;20055;-80
2023/12/31 03:41:35;;;;;;;9.60;5.00;;;-2.60;99.90;;;;;;5094491;28;20058;-80
2023/12/31 03:44:01;;;;;;;10.18;4.55;;;-2.60;99.90;;;;;;5075149;28;20033;-79
2023/12/31 03:46:27;;;;;;;10.07;4.70;;;-2.70;99.90;;;;;;5082949;28;20029;-79
2023/12/31 03:48:52;;;;;;;11.02;5.18;;;-2.80;99.90;;;;;;5096193;28;20067;-80
2023/12/31 03:51:18;;;;;;;11.13;5.40;;;-2.80;99.90;;;;;;5068218;28;20484;-80
2023/12/31 03:53:44;;;;;;;9.27;4.88;;;-2.80;99.90;;;;;;5085584;28;20519;-80
2023/12/31 03:56:10;;;;;;;9.35;5.30;;;-2.80;99.90;;;;;;5097713;28;20043;-80
2023/12/31 03:58:36;;;;;;;11.43;4.70;;;-2.80;99.90;;;;;;5088389;28;20048;-80
2023/12/31 04:01:02;;;;;;;9.60;4.93;;;-2.80;99.90;;;;;;5106899;28;20046;-80
2023/12/31 04:03:27;;;;;;;10.45;4.55;;;-2.70;99.90;;;;;;5125470;28;20476;-80
2023/12/31 04:05:53;;;;;;;7.80;4.57;;;-2.80;99.90;;;;;;5089993;28;20032;-79
2023/12/31 04:08:19;;;;;;;6.38;3.97;;;-2.80;99.90;;;;;;5125168;28;20040;-80
2023/12/31 04:10:44;;;;;;;8.85;4.72;;;-2.80;99.90;;;;;;5125289;28;20036;-79
2023/12/31 04:13:10;;;;;;;14.88;5.28;;;-2.80;99.90;;;;;;5103358;28;20058;-80
2023/12/31 04:15:36;;;;;;;20.65;9.07;;;-2.80;99.90;;;;;;5066248;28;20060;-80
2023/12/31 04:18:02;;;;;;;19.02;9.60;;;-2.80;99.90;;;;;;5054782;28;20164;-80
2023/12/31 04:20:28;;;;;;;21.05;9.95;;;-2.90;99.90;;;;;;5104000;28;20031;-80
2023/12/31 04:22:53;;;;;;;20.27;8.73;;;-2.90;99.90;;;;;;5086801;28;20025;-80
2023/12/31 04:25:19;;;;;;;15.55;6.88;;;-2.90;99.90;;;;;;5068912;28;20034;-80
2023/12/31 04:27:45;;;;;;;9.68;5.03;;;-2.90;99.90;;;;;;5104355;28;20020;-79
2023/12/31 04:30:15;;;;;;;6.05;3.90;;;-2.90;99.90;;;;;;5103575;28;20031;-81
2023/12/31 04:32:40;;;;;;;5.53;3.30;;;-2.90;99.90;;;;;;5105770;28;20024;-79
2023/12/31 04:35:06;;;;;;;6.78;3.20;;;-2.90;99.90;;;;;;5089607;28;20030;-81
2023/12/31 04:37:32;;;;;;;8.63;3.65;;;-2.90;99.90;;;;;;5106879;28;20051;-80
2023/12/31 04:39:58;;;;;;;6.35;3.30;;;-2.90;99.90;;;;;;5106979;28;20027;-80
2023/12/31 04:42:24;;;;;;;6.50;3.65;;;-2.90;99.90;;;;;;5104555;28;20025;-81
2023/12/31 04:44:49;;;;;;;7.57;4.00;;;-2.90;99.90;;;;;;5083001;28;20039;-81
2023/12/31 04:47:15;;;;;;;8.88;4.50;;;-2.90;99.90;;;;;;5067973;28;20051;-81
2023/12/31 04:49:42;;;;;;;8.02;3.88;;;-3.00;99.90;;;;;;5099987;28;20519;-81
2023/12/31 04:52:08;;;;;;;7.05;3.50;;;-2.90;99.90;;;;;;5052382;28;20040;-80
2023/12/31 04:54:38;;;;;;;6.95;3.50;;;-3.00;99.90;;;;;;5069017;28;20580;-81
2023/12/31 04:57:04;;;;;;;8.18;3.90;;;-3.00;99.90;;;;;;5099664;28;20100;-81
2023/12/31 04:59:29;;;;;;;7.38;3.95;;;-3.10;99.90;;;;;;5065524;28;20080;-80
2023/12/31 05:01:55;;;;;;;8.90;4.13;;;-3.10;99.90;;;;;;5086045;28;20039;-81
2023/12/31 05:04:21;;;;;;;8.30;4.13;;;-3.20;99.90;;;;;;5059034;28;20392;-81
2023/12/31 05:06:46;;;;;;;6.72;3.58;;;-3.10;99.90;;;;;;5058973;28;20032;-81
2023/12/31 05:09:12;;;;;;;8.27;3.60;;;-3.10;99.90;;;;;;5057988;28;20044;-82
2023/12/31 05:11:38;;;;;;;7.38;3.67;;;-3.10;99.90;;;;;;5058385;28;20033;-81
2023/12/31 05:14:04;;;;;;;5.65;3.40;;;-3.10;99.90;;;;;;5091259;28;20554;-81
2023/12/31 05:16:33;;;;;;;7.25;3.60;;;-3.00;99.90;;;;;;5076062;28;20020;-81
2023/12/31 05:19:00;;;;;;;6.63;3.47;;;-3.00;99.90;;;;;;5058330;28;20104;-81
2023/12/31 05:21:27;;;;;;;9.20;4.22;;;-3.00;99.90;;;;;;5076118;28;20023;-81
2023/12/31 05:23:53;;;;;;;9.57;5.88;;;-3.10;99.90;;;;;;5057455;28;20021;-81
2023/12/31 05:26:19;;;;;;;240.35;70.15;;;-3.20;99.90;;;;;;5060749;28;20046;-81
2023/12/31 05:28:44;;;;;;;312.98;88.47;;;-3.20;99.90;;;;;;5082362;28;20023;-81
2023/12/31 05:31:10;;;;;;;239.95;69.75;;;-3.30;99.90;;;;;;5081384;28;20032;-81
2023/12/31 05:33:36;;;;;;;153.70;46.28;;;-3.30;99.90;;;;;;5081956;28;20498;-80
2023/12/31 05:36:03;;;;;;;116.53;33.72;;;-3.40;99.90;;;;;;5098857;28;20030;-81
2023/12/31 05:38:28;;;;;;;37.13;14.95;;;-3.30;99.90;;;;;;5082026;28;20077;-80
2023/12/31 05:40:54;;;;;;;12.70;5.63;;;-3.30;99.90;;;;;;5077485;28;20454;-81
2023/12/31 05:43:20;;;;;;;12.35;5.45;;;-3.30;99.90;;;;;;5042501;28;20033;-81
2023/12/31 05:45:46;;;;;;;6.85;4.60;;;-3.30;99.90;;;;;;5025437;28;20070;-81
2023/12/31 05:48:13;;;;;;;6.32;3.92;;;-3.20;99.90;;;;;;5082237;28;20095;-81
2023/12/31 05:50:39;;;;;;;5.97;3.78;;;-3.20;99.90;;;;;;5048683;28;20079;-81
2023/12/31 05:53:04;;;;;;;7.28;3.70;;;-3.20;99.90;;;;;;5074723;28;20028;-81
2023/12/31 05:55:31;;;;;;;6.57;3.63;;;-3.20;99.90;;;;;;5088228;28;20024;-81
2023/12/31 05:57:57;;;;;;;8.57;4.40;;;-3.20;99.90;;;;;;5078197;28;20391;-81
2023/12/31 06:00:23;;;;;;;6.70;3.83;;;-3.20;99.90;;;;;;5061281;28;20127;-79
2023/12/31 06:02:49;;;;;;;7.00;4.47;;;-3.20;99.90;;;;;;5076180;28;20032;-79
2023/12/31 06:05:15;;;;;;;10.82;4.90;;;-3.20;99.90;;;;;;5093621;28;20032;-79
2023/12/31 06:07:41;;;;;;;8.98;5.47;;;-3.20;99.90;;;;;;5076066;28;20077;-79
2023/12/31 06:10:07;;;;;;;11.25;5.28;;;-3.20;99.90;;;;;;5075842;28;20407;-79
2023/12/31 06:12:33;;;;;;;9.23;5.10;;;-3.30;99.90;;;;;;5084471;28;20028;-79
2023/12/31 06:14:59;;;;;;;9.55;4.15;;;-3.30;99.90;;;;;;5093472;28;20077;-79
2023/12/31 06:17:26;;;;;;;9.93;5.53;;;-3.30;99.90;;;;;;5114283;28;20032;-79
2023/12/31 06:19:52;;;;;;;11.82;5.78;;;-3.40;99.90;;;;;;5093262;28;20024;-79
2023/12/31 06:22:18;;;;;;;10.18;6.35;;;-3.50;99.90;;;;;;5075076;28;20024;-79
2023/12/31 06:24:44;;;;;;;12.70;7.38;;;-3.60;99.90;;;;;;5093727;28;20025;-79
2023/12/31 06:27:09;;;;;;;14.55;7.90;;;-3.60;99.90;;;;;;5065356;28;20038;-79
2023/12/31 06:29:35;;;;;;;10.05;6.57;;;-3.60;99.90;;;;;;5095797;28;20081;-79
2023/12/31 06:32:01;;;;;;;10.52;6.10;;;-3.60;99.90;;;;;;5114185;28;20102;-79
2023/12/31 06:34:26;;;;;;;12.13;5.70;;;-3.60;99.90;;;;;;5095489;28;20055;-79
2023/12/31 06:36:52;;;;;;;8.63;4.65;;;-3.60;99.90;;;;;;5096225;28;20080;-79
2023/12/31 06:39:18;;;;;;;6.72;3.92;;;-3.60;99.90;;;;;;5079217;28;20028;-79
2023/12/31 06:41:43;;;;;;;8.13;3.47;;;-3.60;99.90;;;;;;5095729;28;20031;-79
2023/12/31 06:44:09;;;;;;;7.10;3.83;;;-3.60;99.90;;;;;;5078936;28;20028;-78
2023/12/31 06:46:34;;;;;;;10.63;3.92;;;-3.60;99.90;;;;;;5059612;28;20032;-79
2023/12/31 06:49:00;;;;;;;9.25;4.75;;;-3.60;99.90;;;;;;5075359;28;20067;-79
2023/12/31 06:51:26;;;;;;;8.30;4.20;;;-3.60;99.90;;;;;;5075508;28;20082;-79
2023/12/31 06:53:51;;;;;;;7.07;3.25;;;-3.60;99.90;;;;;;5058852;28;20032;-79
2023/12/31 06:56:18;;;;;;;5.97;3.20;;;-3.60;99.90;;;;;;5093832;28;20045;-79
2023/12/31 06:58:44;;;;;;;8.35;3.28;;;-3.60;99.90;;;;;;5058318;28;20028;-79
2023/12/31 07:01:10;;;;;;;6.25;3.60;;;-3.60;99.90;;;;;;5109139;28;20479;-78
2023/12/31 07:03:35;;;;;;;6.40;3.72;;;-3.70;99.90;;;;;;5113858;28;20024;-79
2023/12/31 07:06:01;;;;;;;8.15;3.78;;;-3.70;99.90;;;;;;5095442;28;20020;-78
2023/12/31 07:08:27;;;;;;;8.85;4.88;;;-3.70;99.90;;;;;;5113205;28;20039;-79
2023/12/31 07:10:54;;;;;;;8.27;5.43;;;-3.70;99.90;;;;;;5113508;28;20024;-78
2023/12/31 07:13:20;;;;;;;10.77;6.55;;;-3.80;99.90;;;;;;5102269;28;20027;-79
2023/12/31 07:15:45;;;;;;;10.43;5.50;;;-3.80;99.90;;;;;;5093097;28;20103;-79
2023/12/31 07:18:11;;;;;;;10.23;5.40;;;-3.90;99.90;;;;;;5076555;28;20035;-78
2023/12/31 07:20:37;;;;;;;14.27;6.47;;;-3.80;99.90;;;;;;5092952;28;20099;-78
2023/12/31 07:23:03;;;;;;;14.27;6.90;;;-3.80;99.90;;;;;;5075006;28;20048;-78
2023/12/31 07:25:30;;;;;;;11.63;5.63;;;-3.80;99.90;;;;;;5092021;28;20013;-79
2023/12/31 07:27:56;;;;;;;11.20;5.78;;;-3.70;99.90;;;;;;5075559;28;20388;-79
2023/12/31 07:30:22;;;;;;;23.63;9.75;;;-3.70;99.90;;;;;;5093526;28;20024;-79
2023/12/31 07:32:48;;;;;;;15.48;6.47;;;-3.70;99.90;;;;;;5077264;28;20063;-78
2023/12/31 07:35:13;;;;;;;14.38;6.70;;;-3.70;99.90;;;;;;5065429;28;20036;-78
2023/12/31 07:37:39;;;;;;;17.33;8.23;;;-3.70;99.90;;;;;;5062617;28;20365;-79
2023/12/31 07:40:07;;;;;;;16.50;8.05;;;-3.60;99.90;;;;;;5062519;28;20074;-79
2023/12/31 07:42:34;;;;;;;13.07;7.50;;;-3.60;99.90;;;;;;5079550;28;20066;-79
2023/12/31 07:44:59;;;;;;;11.85;6.93;;;-3.60;99.90;;;;;;5097061;28;20024;-79
2023/12/31 07:47:25;;;;;;;10.60;6.85;;;-3.60;99.90;;;;;;5078891;28;20526;-79
2023/12/31 07:49:51;;;;;;;13.43;8.07;;;-3.50;99.90;;;;;;5088167;28;20065;-78
2023/12/31 07:52:17;;;;;;;12.05;7.07;;;-3.50;99.90;;;;;;5107255;28;20032;-79
2023/12/31 07:54:43;;;;;;;10.77;5.53;;;-3.40;99.90;;;;;;5079059;28;20031;-79
2023/12/31 07:57:09;;;;;;;9.10;4.45;;;-3.40;99.90;;;;;;5096645;28;20071;-78
2023/12/31 07:59:35;;;;;;;8.02;4.13;;;-3.40;99.90;;;;;;5078625;28;20099;-79
2023/12/31 08:02:02;;;;;;;8.05;4.63;;;-3.30;99.90;;;;;;5096653;28;20035;-79
2023/12/31 08:04:28;;;;;;;7.65;4.53;;;-3.30;99.90;;;;;;5095232;28;20444;-78
2023/12/31 08:06:54;;;;;;;9.43;5.55;;;-3.30;99.90;;;;;;5096624;28;20047;-79
2023/12/31 08:09:20;;;;;;;11.82;6.43;;;-3.20;99.90;;;;;;5096644;28;20454;-79
2023/12/31 08:11:46;;;;;;;13.63;6.32;;;-3.20;99.90;;;;;;5078643;28;20541;-79
2023/12/31 08:14:11;;;;;;;11.30;6.53;;;-3.20;99.90;;;;;;5078618;28;20108;-79
2023/12/31 08:16:37;;;;;;;14.45;8.32;;;-3.10;99.90;;;;;;5096656;28;20024;-78
2023/12/31 08:19:04;;;;;;;12.15;6.63;;;-3.10;99.90;;;;;;5078053;28;20507;-79
2023/12/31 08:21:30;;;;;;;13.02;6.78;;;-3.10;99.90;;;;;;5065941;28;20023;-79
2023/12/31 08:23:56;;;;;;;13.70;6.13;;;-3.00;99.90;;;;;;5090486;28;20084;-79
2023/12/31 08:26:22;;;;;;;10.63;4.68;;;-3.00;99.90;;;;;;5096603;28;20111;-79
2023/12/31 08:28:47;;;;;;;13.27;7.05;;;-3.00;99.90;;;;;;5061724;28;20024;-79
2023/12/31 08:31:17;;;;;;;13.35;7.35;;;-3.00;99.90;;;;;;5078482;28;20031;-79
2023/12/31 08:33:43;;;;;;;14.63;6.93;;;-2.90;99.90;;;;;;5097082;28;20101;-79
2023/12/31 08:36:09;;;;;;;13.88;6.53;;;-2.90;99.90;;;;;;5078185;28;20034;-79
2023/12/31 08:38:34;;;;;;;13.00;6.25;;;-2.90;99.90;;;;;;5096152;28;20027;-79
2023/12/31 08:41:00;;;;;;;14.05;5.65;;;-2.80;99.90;;;;;;5075748;28;20116;-79
2023/12/31 08:43:27;;;;;;;11.27;5.82;;;-2.70;99.90;;;;;;5076629;28;20456;-79
2023/12/31 08:45:53;;;;;;;14.65;6.43;;;-2.70;99.90;;;;;;5091888;28;20438;-79
2023/12/31 08:48:20;;;;;;;15.85;7.00;;;-2.60;99.90;;;;;;5093184;28;20050;-79
2023/12/31 08:50:46;;;;;;;15.82;6.97;;;-2.60;99.90;;;;;;5076927;28;20059;-79
2023/12/31 08:53:12;;;;;;;16.30;7.03;;;-2.50;99.90;;;;;;5077445;28;20063;-79
2023/12/31 08:55:38;;;;;;;16.42;7.93;;;-2.50;99.90;;;;;;5095424;28;20062;-79
2023/12/31 08:58:04;;;;;;;15.60;7.43;;;-2.50;99.90;;;;;;5095620;28;20023;-79
2023/12/31 09:00:33;;;;;;;15.98;6.72;;;-2.40;99.90;;;;;;5077058;28;20036;-79
2023/12/31 09:02:59;;;;;;;12.50;7.25;;;-2.30;99.90;;;;;;5095520;28;20020;-79
2023/12/31 09:05:25;;;;;;;14.60;6.75;;;-2.30;99.90;;;;;;5060428;28;20059;-79
2023/12/31 09:07:50;;;;;;;11.77;6.22;;;-2.20;99.90;;;;;;5077500;28;20030;-79
2023/12/31 09:10:16;;;;;;;13.63;6.50;;;-2.20;99.90;;;;;;5061384;28;20550;-79
2023/12/31 09:12:42;;;;;;;16.80;8.23;;;-2.10;99.90;;;;;;5097128;28;20023;-79
2023/12/31 09:15:08;;;;;;;18.08;8.65;;;-2.10;99.90;;;;;;5061392;28;20088;-79
2023/12/31 09:17:37;;;;;;;14.82;7.90;;;-2.00;99.90;;;;;;5060782;28;20024;-80
2023/12/31 09:20:05;;;;;;;11.45;6.38;;;-2.00;99.90;;;;;;5095641;28;20024;-79
2023/12/31 09:22:32;;;;;;;10.70;5.68;;;-1.90;99.90;;;;;;5095582;28;20024;-79
2023/12/31 09:24:57;;;;;;;10.38;5.32;;;-1.90;99.90;;;;;;5095910;28;20020;-79
2023/12/31 09:27:23;;;;;;;8.23;4.95;;;-1.80;99.90;;;;;;5060797;28;20024;-79
2023/12/31 09:29:49;;;;;;;16.05;8.43;;;-1.80;99.90;;;;;;5088531;28;20028;-79
2023/12/31 09:32:14;;;;;;;17.02;8.85;;;-1.80;99.90;;;;;;5097739;28;20507;-79
2023/12/31 09:34:40;;;;;;;24.23;11.10;;;-1.70;99.90;;;;;;5097505;28;20058;-79
2023/12/31 09:37:06;;;;;;;29.95;13.93;;;-1.60;99.90;;;;;;5072238;28;20031;-79
2023/12/31 09:39:32;;;;;;;30.17;12.85;;;-1.60;99.90;;;;;;5067677;28;20032;-79
2023/12/31 09:42:03;;;;;;;23.17;10.57;;;-1.50;99.90;;;;;;5062765;28;20523;-79
2023/12/31 09:44:29;;;;;;;19.42;9.73;;;-1.40;99.90;;;;;;5088361;28;20074;-80
2023/12/31 09:47:04;;;;;;;35.95;19.45;;;-1.40;99.90;;;;;;5095019;28;20024;-79
2023/12/31 09:49:31;;;;;;;25.80;14.38;;;-1.20;99.90;;;;;;5092822;28;20100;-80
2023/12/31 09:52:00;;;;;;;24.67;13.50;;;-1.10;99.90;;;;;;5099816;28;20396;-81
2023/12/31 09:54:26;;;;;;;15.15;9.13;;;-1.00;99.90;;;;;;5117729;28;20024;-80
2023/12/31 09:56:52;;;;;;;13.65;7.03;;;-0.90;99.90;;;;;;5075751;28;20477;-80
2023/12/31 09:59:20;;;;;;;12.00;7.25;;;-0.80;99.90;;;;;;5061568;28;20072;-80
2023/12/31 10:01:46;;;;;;;11.05;5.93;;;-0.60;99.90;;;;;;5087066;28;20075;-80
2023/12/31 10:04:12;;;;;;;11.75;5.57;;;-0.50;99.90;;;;;;5086173;28;20101;-80
2023/12/31 10:06:39;;;;;;;10.35;5.50;;;-0.50;99.90;;;;;;5053282;28;20032;-80
2023/12/31 10:09:07;;;;;;;13.50;6.88;;;-0.40;99.90;;;;;;5056597;28;20040;-80
2023/12/31 10:11:33;;;;;;;13.55;7.15;;;-0.30;99.90;;;;;;5062700;28;20029;-80
2023/12/31 10:13:59;;;;;;;11.10;5.97;;;-0.20;99.90;;;;;;5072944;28;20077;-80
2023/12/31 10:16:34;;;;;;;11.50;4.72;;;-0.10;99.90;;;;;;5051658;28;20032;-80
2023/12/31 10:19:00;;;;;;;8.85;5.18;;;0.00;99.90;;;;;;5081601;28;20543;-80
2023/12/31 10:21:26;;;;;;;10.68;5.82;;;0.00;99.90;;;;;;5081027;28;20024;-80
2023/12/31 10:23:52;;;;;;;13.20;6.70;;;0.10;99.90;;;;;;5063400;28;20028;-80
2023/12/31 10:26:18;;;;;;;12.68;5.88;;;0.20;99.90;;;;;;5027292;28;20028;-80
2023/12/31 10:28:44;;;;;;;13.27;5.95;;;0.30;99.90;;;;;;5072956;28;20484;-81
2023/12/31 10:31:10;;;;;;;9.23;4.57;;;0.40;99.90;;;;;;5047691;28;20043;-81
2023/12/31 10:33:37;;;;;;;9.52;5.78;;;0.50;99.90;;;;;;5047566;28;20021;-81
2023/12/31 10:36:06;;;;;;;10.60;4.63;;;0.50;99.90;;;;;;5045280;28;20036;-80
2023/12/31 10:38:45;;;;;;;7.30;4.60;;;0.60;99.90;;;;;;5089920;28;20016;-81
2023/12/31 10:41:14;;;;;;;29.40;15.73;;;0.60;99.90;;;;;;5075978;28;20078;-81
2023/12/31 10:43:40;;;;;;;52.95;24.92;;;0.60;99.90;;;;;;5077332;28;20024;-81
2023/12/31 10:46:09;;;;;;;19.05;10.18;;;0.70;99.90;;;;;;5066411;28;20020;-81
2023/12/31 10:48:37;;;;;;;7.25;4.25;;;0.70;99.90;;;;;;5071697;28;20024;-81
2023/12/31 10:51:08;;;;;;;8.48;4.47;;;0.80;99.90;;;;;;5052642;28;20035;-82
2023/12/31 10:53:39;;;;;;;8.55;4.30;;;0.80;99.90;;;;;;5059638;28;20031;-82
2023/12/31 10:56:05;;;;;;;;;;;0.90;99.90;;;;;;5060094;28;20033;-81
2023/12/31 10:58:31;;;;;;;9.52;5.00;;;0.90;99.90;;;;;;5078035;28;19908;-82
2023/12/31 11:00:58;;;;;;;11.40;6.38;;;0.90;99.90;;;;;;5059671;28;20075;-81
2023/12/31 11:03:26;;;;;;;8.02;4.65;;;1.00;99.90;;;;;;5060230;28;20039;-82
2023/12/31 11:05:52;;;;;;;9.95;4.10;;;1.00;99.90;;;;;;5071395;28;20062;-82
2023/12/31 11:08:20;;;;;;;9.40;4.47;;;1.00;99.90;;;;;;5048015;28;20032;-82
2023/12/31 11:10:46;;;;;;;7.72;3.97;;;1.10;99.90;;;;;;5081870;28;20031;-82
2023/12/31 11:13:15;;;;;;;6.90;4.22;;;1.10;99.90;;;;;;5064864;28;20514;-82
2023/12/31 11:15:42;;;;;;;7.32;3.92;;;1.20;99.90;;;;;;5082322;28;20059;-82
2023/12/31 11:18:58;;;;;;;14.63;8.02;;;1.30;99.90;;;;;;5094970;28;20020;-81
2023/12/31 11:21:59;;;;;;;6.30;3.50;;;1.50;99.90;;;;;;5038082;28;20092;-82
2023/12/31 11:24:25;;;;;;;7.95;3.33;;;1.60;99.90;;;;;;5018008;28;20099;-82
2023/12/31 11:27:15;;;;;;;8.98;3.45;;;1.70;99.90;;;;;;5033786;28;20045;-81
2023/12/31 11:29:43;;;;;;;18.27;6.90;;;1.80;99.90;;;;;;5061873;28;20033;-81
2023/12/31 11:32:09;;;;;;;14.20;7.47;;;1.90;99.90;;;;;;5061878;28;20020;-81
2023/12/31 11:34:39;;;;;;;13.85;8.32;;;1.90;99.90;;;;;;5079469;28;20029;-82
2023/12/31 11:37:08;;;;;;;8.55;4.70;;;2.00;99.90;;;;;;5061493;28;20031;-82
2023/12/31 11:39:33;;;;;;;11.50;4.75;;;2.10;99.90;;;;;;5095989;28;20024;-82
2023/12/31 11:42:11;;;;;;;9.10;4.85;;;2.20;99.90;;;;;;5104537;28;20030;-82
2023/12/31 11:44:41;;;;;;;10.93;5.88;;;2.30;99.90;;;;;;5088776;28;20023;-82
2023/12/31 11:47:21;;;;;;;4.32;2.60;;;2.30;99.90;;;;;;5117200;28;20084;-82
2023/12/31 11:49:52;;;;;;;6.07;2.63;;;2.40;99.90;;;;;;5085058;28;20071;-81
2023/12/31 11:52:37;;;;;;;6.07;2.85;;;2.50;99.90;;;;;;5067599;28;20031;-82
2023/12/31 11:55:03;;;;;;;7.57;2.78;;;2.50;99.90;;;;;;5108358;28;20028;-82
2023/12/31 11:57:28;;;;;;;4.60;2.55;;;2.60;99.90;;;;;;5107289;28;20059;-82
2023/12/31 11:59:55;;;;;;;3.65;2.33;;;2.60;99.90;;;;;;5107227;28;20088;-82
2023/12/31 12:02:21;;;;;;;5.03;2.45;;;2.70;99.90;;;;;;5106708;28;20024;-82
2023/12/31 12:04:46;;;;;;;4.90;2.63;;;2.70;99.90;;;;;;5105608;28;20027;-81
2023/12/31 12:07:13;;;;;;;5.05;2.58;;;2.80;99.90;;;;;;5085602;28;20032;-82
2023/12/31 12:09:39;;;;;;;5.18;2.80;;;2.80;99.90;;;;;;5102669;28;20032;-81
2023/12/31 12:12:08;;;;;;;4.45;2.50;;;2.80;99.90;;;;;;5072693;28;20033;-81
2023/12/31 12:14:34;;;;;;;5.82;2.75;;;2.80;99.90;;;;;;5079897;28;20024;-81
2023/12/31 12:17:02;;;;;;;5.65;3.72;;;2.80;99.90;;;;;;5077029;28;20034;-81
2023/12/31 12:19:28;;;;;;;5.35;3.95;;;2.80;99.90;;;;;;5080854;28;20123;-81
2023/12/31 12:21:54;;;;;;;6.22;3.78;;;2.90;99.90;;;;;;5082024;28;20066;-81
2023/12/31 12:24:20;;;;;;;5.95;3.30;;;2.90;99.90;;;;;;5080614;28;20549;-82
2023/12/31 12:26:50;;;;;;;9.75;4.95;;;2.90;99.90;;;;;;5063901;28;20028;-82
2023/12/31 12:29:16;;;;;;;10.53;4.67;;;2.90;99.90;;;;;;5091534;28;20476;-82
2023/12/31 12:31:47;;;;;;;9.70;5.38;;;2.90;99.90;;;;;;5100230;28;20024;-81
2023/12/31 12:34:14;;;;;;;8.35;5.72;;;2.90;99.90;;;;;;5100303;28;20031;-82
2023/12/31 12:36:46;;;;;;;12.80;6.43;;;2.90;99.90;;;;;;5100757;28;20027;-82
2023/12/31 12:39:15;;;;;;;;;;;2.90;99.90;;;;;;5119941;28;20476;-81